Time;durP1;ratioP1;P1;durP2;ratioP2;P2;SDS_P1;SDS_P2;PMS_P1;PMS_P2;Temp;Humidity;BMP_temperature;BMP_pressure;BME280_temperature;BME280_humidity;BME280_pressure;Samples;Min_cycle;Max_cycle;Signal;HPM_P1;HPM_P2
2023/01/23 00:00:56;;;;;;;65.20;27.80;;;1.20;99.90;;;;;;5063987;28;20184;-46
2023/01/23 00:03:22;;;;;;;67.97;26.57;;;1.20;99.90;;;;;;5045809;28;20210;-46
2023/01/23 00:06:02;;;;;;;64.67;25.77;;;1.20;99.90;;;;;;5045425;28;20517;-45
2023/01/23 00:08:28;;;;;;;72.07;29.97;;;1.30;99.90;;;;;;5063278;28;20163;-45
2023/01/23 00:10:54;;;;;;;71.87;28.87;;;1.20;99.90;;;;;;5063785;28;20240;-47
2023/01/23 00:13:20;;;;;;;57.83;26.40;;;1.30;99.90;;;;;;5045762;28;20210;-46
2023/01/23 00:15:47;;;;;;;78.83;27.23;;;1.20;99.90;;;;;;5063236;28;20192;-47
2023/01/23 00:18:12;;;;;;;63.93;26.17;;;1.30;99.90;;;;;;5063556;28;20199;-47
2023/01/23 00:20:40;;;;;;;60.93;26.67;;;1.30;99.90;;;;;;5063567;28;20407;-46
2023/01/23 00:23:06;;;;;;;67.77;25.40;;;1.20;99.90;;;;;;5063325;28;20200;-47
2023/01/23 00:25:33;;;;;;;76.03;30.43;;;1.20;99.90;;;;;;5063579;28;20183;-47
2023/01/23 00:27:59;;;;;;;68.60;27.60;;;1.20;99.90;;;;;;5063712;28;20182;-46
2023/01/23 00:30:25;;;;;;;68.67;26.50;;;1.20;99.90;;;;;;5063629;28;20188;-45
2023/01/23 00:32:50;;;;;;;70.77;27.10;;;1.30;99.90;;;;;;5063153;28;20211;-45
2023/01/23 00:35:16;;;;;;;67.87;26.60;;;1.30;99.90;;;;;;5063779;28;20191;-46
2023/01/23 00:37:41;;;;;;;80.50;28.27;;;1.30;99.90;;;;;;5063412;28;20229;-47
2023/01/23 00:40:08;;;;;;;78.83;30.57;;;1.20;99.90;;;;;;5062433;28;20661;-46
2023/01/23 00:42:33;;;;;;;82.73;30.83;;;1.20;99.90;;;;;;5063466;28;20679;-48
2023/01/23 00:44:59;;;;;;;81.33;28.73;;;1.30;99.90;;;;;;5045728;28;20202;-47
2023/01/23 00:47:24;;;;;;;91.20;30.53;;;1.30;99.90;;;;;;5044848;28;20194;-46
2023/01/23 00:49:52;;;;;;;73.70;29.57;;;1.20;99.90;;;;;;5062580;28;20210;-47
2023/01/23 00:52:18;;;;;;;82.47;28.53;;;1.30;99.90;;;;;;5062283;28;20223;-47
2023/01/23 00:54:44;;;;;;;77.70;31.10;;;1.30;99.90;;;;;;5061492;28;20179;-46
2023/01/23 00:57:09;;;;;;;74.23;28.50;;;1.30;99.90;;;;;;5044308;28;20241;-45
2023/01/23 00:59:35;;;;;;;80.30;29.57;;;1.30;99.90;;;;;;5043428;28;20217;-46
2023/01/23 01:02:01;;;;;;;82.43;27.57;;;1.30;99.90;;;;;;5061615;28;20207;-46
2023/01/23 01:04:26;;;;;;;81.73;28.17;;;1.30;99.90;;;;;;5061450;28;20187;-45
2023/01/23 01:06:52;;;;;;;77.67;28.17;;;1.20;99.90;;;;;;5062145;28;20232;-47
2023/01/23 01:09:17;;;;;;;78.57;29.50;;;1.30;99.90;;;;;;5044541;28;20709;-48
2023/01/23 01:11:43;;;;;;;79.83;27.73;;;1.30;99.90;;;;;;5060211;28;20227;-48
2023/01/23 01:14:09;;;;;;;76.17;28.63;;;1.20;99.90;;;;;;5042759;28;20234;-47
2023/01/23 01:16:34;;;;;;;79.87;28.37;;;1.30;99.90;;;;;;5059984;28;20180;-46
2023/01/23 01:19:00;;;;;;;67.63;28.17;;;1.30;99.90;;;;;;5060063;28;20282;-48
2023/01/23 01:21:26;;;;;;;69.13;28.20;;;1.20;99.90;;;;;;5059944;28;20203;-47
2023/01/23 01:23:52;;;;;;;72.30;28.30;;;1.30;99.90;;;;;;5059472;28;20183;-48
2023/01/23 01:26:17;;;;;;;68.27;26.23;;;1.30;99.90;;;;;;5059550;28;20173;-48
2023/01/23 01:28:43;;;;;;;65.87;26.33;;;1.30;99.90;;;;;;5040752;28;20232;-47
2023/01/23 01:31:14;;;;;;;65.23;26.17;;;1.30;99.90;;;;;;5058738;28;20195;-48
2023/01/23 01:33:41;;;;;;;69.90;26.27;;;1.30;99.90;;;;;;5058499;28;20211;-47
2023/01/23 01:36:09;;;;;;;59.57;25.93;;;1.30;99.90;;;;;;5058315;28;20188;-47
2023/01/23 01:38:35;;;;;;;79.10;28.87;;;1.30;99.90;;;;;;5058378;28;20286;-48
2023/01/23 01:41:01;;;;;;;70.93;27.63;;;1.40;99.90;;;;;;5057516;28;20207;-47
2023/01/23 01:43:27;;;;;;;76.20;29.17;;;1.30;99.90;;;;;;5040218;28;20214;-47
2023/01/23 01:46:21;;;;;;;78.43;27.73;;;1.40;99.90;;;;;;5057718;28;20262;-47
2023/01/23 01:49:07;;;;;;;60.27;26.73;;;1.40;99.90;;;;;;5057820;28;20171;-47
2023/01/23 01:52:05;;;;;;;65.37;27.47;;;1.40;99.90;;;;;;5061521;28;20202;-47
2023/01/23 01:54:39;;;;;;;68.50;25.83;;;1.40;99.90;;;;;;5027373;28;20202;-48
2023/01/23 01:57:12;;;;;;;63.00;27.50;;;1.40;99.90;;;;;;5057733;28;20167;-47
2023/01/23 01:59:58;;;;;;;67.17;26.60;;;1.40;99.90;;;;;;5055426;28;20207;-47
2023/01/23 02:02:36;;;;;;;72.97;27.87;;;1.40;99.90;;;;;;5060642;28;20445;-47
2023/01/23 02:05:14;;;;;;;57.07;24.77;;;1.40;99.90;;;;;;5062862;28;20243;-47
2023/01/23 02:07:56;;;;;;;63.87;25.63;;;1.40;99.90;;;;;;5062613;28;20168;-48
2023/01/23 02:10:23;;;;;;;59.77;26.57;;;1.40;99.90;;;;;;5043673;28;20540;-45
2023/01/23 02:12:51;;;;;;;51.43;25.13;;;1.40;99.90;;;;;;5045900;28;20266;-46
2023/01/23 02:15:19;;;;;;;60.87;29.73;;;1.40;99.90;;;;;;5046624;28;20232;-46
2023/01/23 02:17:47;;;;;;;56.67;25.03;;;1.40;99.90;;;;;;5064147;28;20465;-47
2023/01/23 02:20:25;;;;;;;62.93;29.03;;;1.40;99.90;;;;;;5046342;28;20192;-47
2023/01/23 02:22:57;;;;;;;55.97;24.30;;;1.40;99.90;;;;;;5062965;28;20196;-46
2023/01/23 02:25:25;;;;;;;64.17;28.87;;;1.40;99.90;;;;;;5063317;28;20481;-48
2023/01/23 02:27:51;;;;;;;66.57;25.70;;;1.40;99.90;;;;;;5063156;28;20191;-47
2023/01/23 02:30:20;;;;;;;53.43;25.00;;;1.40;99.90;;;;;;5044488;28;20189;-47
2023/01/23 02:32:45;;;;;;;61.23;26.17;;;1.40;99.90;;;;;;5062585;28;20275;-47
2023/01/23 02:35:20;;;;;;;60.30;25.73;;;1.40;99.90;;;;;;5062814;28;20176;-48
2023/01/23 02:37:47;;;;;;;51.27;24.03;;;1.40;99.90;;;;;;5062690;28;20238;-46
2023/01/23 02:40:13;;;;;;;57.70;24.50;;;1.30;99.90;;;;;;5062205;28;20179;-45
2023/01/23 02:42:41;;;;;;;53.90;24.40;;;1.40;99.90;;;;;;5062291;28;20227;-47
2023/01/23 02:45:08;;;;;;;50.73;24.30;;;1.40;99.90;;;;;;5044822;28;20918;-48
2023/01/23 02:47:34;;;;;;;45.97;23.30;;;1.40;99.90;;;;;;5056091;28;20180;-45
2023/01/23 02:49:59;;;;;;;48.03;21.17;;;1.40;99.90;;;;;;5052812;28;20194;-44
2023/01/23 02:52:25;;;;;;;43.97;21.17;;;1.40;99.90;;;;;;5034858;28;20237;-44
2023/01/23 02:54:50;;;;;;;49.37;22.83;;;1.40;99.90;;;;;;5052851;28;20552;-45
2023/01/23 02:57:16;;;;;;;44.20;22.17;;;1.50;99.90;;;;;;5052716;28;20538;-44
2023/01/23 03:02:26;;;;;;;42.03;20.70;;;1.50;99.90;;;;;;5052841;28;20260;-44
2023/01/23 03:04:52;;;;;;;42.03;21.00;;;1.50;99.90;;;;;;5055009;28;20577;-44
2023/01/23 03:07:17;;;;;;;42.93;21.80;;;1.50;99.90;;;;;;5056370;28;20183;-43
2023/01/23 03:09:46;;;;;;;49.67;23.07;;;1.50;99.90;;;;;;5038142;28;20594;-43
2023/01/23 03:12:13;;;;;;;44.73;21.70;;;1.60;99.90;;;;;;5056252;28;20619;-44
2023/01/23 03:14:40;;;;;;;39.57;21.60;;;1.60;99.90;;;;;;5056016;28;20266;-44
2023/01/23 03:17:05;;;;;;;51.87;23.27;;;1.50;99.90;;;;;;5056153;28;20638;-45
2023/01/23 03:19:31;;;;;;;42.83;22.03;;;1.50;99.90;;;;;;5055980;28;20298;-43
2023/01/23 03:21:57;;;;;;;40.90;22.13;;;1.60;99.90;;;;;;5055981;28;20275;-44
2023/01/23 03:24:23;;;;;;;46.43;22.57;;;1.60;99.90;;;;;;5055964;28;20230;-42
2023/01/23 03:26:49;;;;;;;42.47;20.73;;;1.50;99.90;;;;;;5056111;28;20175;-43
2023/01/23 03:32:02;;;;;;;42.43;21.10;;;1.50;99.90;;;;;;5056136;28;20859;-43
2023/01/23 03:34:28;;;;;;;38.53;19.37;;;1.50;99.90;;;;;;5055936;28;20505;-43
2023/01/23 03:36:54;;;;;;;39.87;21.53;;;1.50;99.90;;;;;;5037802;28;20852;-44
2023/01/23 03:42:04;;;;;;;36.83;18.87;;;1.50;99.90;;;;;;5055551;28;20211;-44
2023/01/23 03:44:29;;;;;;;33.17;19.37;;;1.50;99.90;;;;;;5055836;28;20181;-44
2023/01/23 03:46:55;;;;;;;34.70;19.33;;;1.50;99.90;;;;;;5055966;28;20182;-44
2023/01/23 03:49:21;;;;;;;36.13;19.80;;;1.50;99.90;;;;;;5055796;28;20685;-45
2023/01/23 03:51:46;;;;;;;40.23;20.43;;;1.50;99.90;;;;;;5055309;28;20745;-42
2023/01/23 03:54:13;;;;;;;38.93;20.10;;;1.40;99.90;;;;;;5037624;28;20712;-43
2023/01/23 03:56:40;;;;;;;38.47;20.53;;;1.40;99.90;;;;;;5055319;28;20204;-45
2023/01/23 03:59:05;;;;;;;37.00;20.27;;;1.40;99.90;;;;;;5038072;28;20207;-44
2023/01/23 04:01:31;;;;;;;43.23;21.97;;;1.40;99.90;;;;;;5055418;28;20188;-44
2023/01/23 04:03:56;;;;;;;36.77;21.03;;;1.40;99.90;;;;;;5055756;28;20263;-44
2023/01/23 04:06:22;;;;;;;37.17;19.73;;;1.40;99.90;;;;;;5055165;28;20184;-44
2023/01/23 04:08:47;;;;;;;38.23;20.97;;;1.40;99.90;;;;;;5055232;28;20194;-45
2023/01/23 04:11:13;;;;;;;33.03;20.13;;;1.40;99.90;;;;;;5037086;28;20253;-44
2023/01/23 04:13:39;;;;;;;38.47;19.73;;;1.40;99.90;;;;;;5055366;28;20652;-41
2023/01/23 04:16:05;;;;;;;36.43;19.77;;;1.40;99.90;;;;;;5054573;28;20210;-41
2023/01/23 04:18:31;;;;;;;40.07;21.60;;;1.40;99.90;;;;;;5054687;28;20226;-42
2023/01/23 04:20:57;;;;;;;35.93;20.00;;;1.40;99.90;;;;;;5054892;28;20264;-43
2023/01/23 04:23:24;;;;;;;39.97;21.17;;;1.40;99.90;;;;;;5054800;28;20257;-41
2023/01/23 04:25:50;;;;;;;39.67;20.17;;;1.50;99.90;;;;;;5054926;28;20188;-43
2023/01/23 04:28:17;;;;;;;34.33;19.57;;;1.40;99.90;;;;;;5054822;28;20187;-43
2023/01/23 04:30:42;;;;;;;36.27;21.43;;;1.40;99.90;;;;;;5054649;28;20187;-41
2023/01/23 04:33:08;;;;;;;36.00;20.00;;;1.40;99.90;;;;;;5054462;28;20445;-42
2023/01/23 04:35:34;;;;;;;37.93;18.97;;;1.50;99.90;;;;;;5054766;28;20192;-42
2023/01/23 04:37:59;;;;;;;36.93;19.67;;;1.50;99.90;;;;;;5055249;28;20245;-43
2023/01/23 04:40:26;;;;;;;44.40;21.20;;;1.50;99.90;;;;;;5054489;28;20203;-42
2023/01/23 04:42:51;;;;;;;41.07;23.47;;;1.40;99.90;;;;;;5054613;28;20206;-43
2023/01/23 04:45:17;;;;;;;37.60;20.07;;;1.50;99.90;;;;;;5054644;28;20183;-43
2023/01/23 04:47:43;;;;;;;40.13;21.73;;;1.50;99.90;;;;;;5054447;28;20190;-43
2023/01/23 04:50:09;;;;;;;43.70;24.83;;;1.50;99.90;;;;;;5054516;28;20259;-42
2023/01/23 04:52:35;;;;;;;38.63;20.47;;;1.50;99.90;;;;;;5054380;28;20562;-44
2023/01/23 04:55:01;;;;;;;40.03;20.87;;;1.50;99.90;;;;;;5054380;28;20613;-43
2023/01/23 04:57:27;;;;;;;33.40;18.67;;;1.50;99.90;;;;;;5055782;28;20176;-46
2023/01/23 04:59:52;;;;;;;35.33;20.37;;;1.50;99.90;;;;;;5062530;28;20225;-47
2023/01/23 05:02:18;;;;;;;30.07;16.90;;;1.50;99.90;;;;;;5062480;28;20233;-48
2023/01/23 05:04:44;;;;;;;32.00;19.73;;;1.50;99.90;;;;;;5062854;28;20194;-48
2023/01/23 05:07:11;;;;;;;35.57;20.47;;;1.50;99.90;;;;;;5063237;28;20279;-47
2023/01/23 05:09:37;;;;;;;35.47;19.43;;;1.50;99.90;;;;;;5062421;28;20199;-47
2023/01/23 05:12:03;;;;;;;32.77;19.43;;;1.40;99.90;;;;;;5062806;28;20223;-47
2023/01/23 05:14:29;;;;;;;30.90;19.13;;;1.50;99.90;;;;;;5062769;28;20255;-46
2023/01/23 05:16:55;;;;;;;30.57;18.83;;;1.50;99.90;;;;;;5044595;28;20222;-47
2023/01/23 05:21:49;;;;;;;34.63;19.93;;;1.40;99.90;;;;;;5052501;28;20230;-43
2023/01/23 05:24:15;;;;;;;30.07;18.40;;;1.40;99.90;;;;;;5054074;28;20802;-43
2023/01/23 05:26:41;;;;;;;32.93;19.10;;;1.40;99.90;;;;;;5052887;28;20180;-43
2023/01/23 05:29:07;;;;;;;30.50;18.30;;;1.40;99.90;;;;;;5053838;28;20438;-41
2023/01/23 05:31:33;;;;;;;29.00;16.50;;;1.40;99.90;;;;;;5053460;28;20409;-43
2023/01/23 05:33:59;;;;;;;31.17;19.40;;;1.40;99.90;;;;;;5036020;28;20187;-43
2023/01/23 05:36:25;;;;;;;31.23;19.40;;;1.40;99.90;;;;;;5053436;28;20179;-45
2023/01/23 05:38:53;;;;;;;33.83;18.63;;;1.40;99.90;;;;;;5053237;28;20308;-42
2023/01/23 05:41:19;;;;;;;33.43;18.93;;;1.40;99.90;;;;;;5053392;28;20662;-42
2023/01/23 05:43:44;;;;;;;30.77;18.43;;;1.40;99.90;;;;;;5053268;28;20434;-45
2023/01/23 05:46:11;;;;;;;30.03;18.23;;;1.40;99.90;;;;;;5053410;28;20601;-45
2023/01/23 05:48:43;;;;;;;37.23;19.93;;;1.40;99.90;;;;;;5053163;28;20191;-44
2023/01/23 05:51:10;;;;;;;37.30;20.73;;;1.40;99.90;;;;;;5003893;28;20229;-42
2023/01/23 05:53:38;;;;;;;32.37;19.07;;;1.40;99.90;;;;;;5052447;28;20207;-42
2023/01/23 05:56:06;;;;;;;34.10;19.20;;;1.40;99.90;;;;;;5053922;28;20674;-46
2023/01/23 05:58:33;;;;;;;34.83;22.10;;;1.30;99.90;;;;;;5053154;28;20460;-47
2023/01/23 06:01:02;;;;;;;33.50;19.57;;;1.30;99.90;;;;;;5053168;28;20206;-47
2023/01/23 06:03:29;;;;;;;34.43;19.60;;;1.30;99.90;;;;;;5053161;28;20215;-46
2023/01/23 06:05:55;;;;;;;34.90;20.63;;;1.30;99.90;;;;;;5053057;28;20413;-46
2023/01/23 06:08:20;;;;;;;30.37;18.73;;;1.30;99.90;;;;;;5053229;28;20651;-46
2023/01/23 06:10:47;;;;;;;30.33;19.17;;;1.30;99.90;;;;;;5053158;28;20266;-48
2023/01/23 06:13:14;;;;;;;28.53;18.00;;;1.20;99.90;;;;;;5053066;28;20203;-48
2023/01/23 06:15:40;;;;;;;30.13;17.07;;;1.20;99.90;;;;;;5035276;28;20176;-47
2023/01/23 06:18:06;;;;;;;31.53;19.20;;;1.20;99.90;;;;;;5035034;28;20203;-48
2023/01/23 06:20:32;;;;;;;34.47;19.50;;;1.20;99.90;;;;;;5053056;28;20186;-47
2023/01/23 06:22:58;;;;;;;28.53;15.80;;;1.20;99.90;;;;;;5052760;28;20195;-49
2023/01/23 06:25:24;;;;;;;31.57;17.90;;;1.10;99.90;;;;;;5035171;28;20636;-47
2023/01/23 06:27:50;;;;;;;32.23;18.20;;;1.20;99.90;;;;;;5053628;28;20275;-46
2023/01/23 06:30:16;;;;;;;30.93;17.30;;;1.20;99.90;;;;;;5052964;28;20203;-47
2023/01/23 06:32:41;;;;;;;31.23;17.90;;;1.20;99.90;;;;;;5053072;28;20227;-47
2023/01/23 06:35:07;;;;;;;34.17;17.73;;;1.20;99.90;;;;;;5053100;28;20273;-48
2023/01/23 06:37:33;;;;;;;27.37;17.90;;;1.20;99.90;;;;;;5053584;28;20187;-46
2023/01/23 06:39:58;;;;;;;30.50;17.83;;;1.20;99.90;;;;;;5057034;28;20164;-47
2023/01/23 06:42:24;;;;;;;29.33;17.17;;;1.20;99.90;;;;;;5056768;28;20202;-48
2023/01/23 06:44:50;;;;;;;28.57;17.17;;;1.20;99.90;;;;;;5056509;28;20545;-47
2023/01/23 06:47:15;;;;;;;28.97;17.43;;;1.20;99.90;;;;;;5056513;28;20187;-48
2023/01/23 06:49:41;;;;;;;33.40;18.43;;;1.20;99.90;;;;;;5056824;28;20175;-46
2023/01/23 06:52:06;;;;;;;33.17;17.27;;;1.20;99.90;;;;;;5056287;28;20228;-48
2023/01/23 06:54:32;;;;;;;32.07;17.70;;;1.20;99.90;;;;;;5056627;28;20194;-48
2023/01/23 06:56:58;;;;;;;31.30;17.83;;;1.20;99.90;;;;;;5056322;28;20179;-48
2023/01/23 06:59:23;;;;;;;29.47;17.33;;;1.20;99.90;;;;;;5038433;28;20203;-48
2023/01/23 07:01:49;;;;;;;30.00;17.67;;;1.20;99.90;;;;;;5056088;28;20662;-47
2023/01/23 07:04:15;;;;;;;33.53;18.90;;;1.20;99.90;;;;;;5056367;28;20519;-47
2023/01/23 07:06:40;;;;;;;30.70;17.87;;;1.20;99.90;;;;;;5056378;28;20634;-46
2023/01/23 07:09:06;;;;;;;27.50;16.10;;;1.20;99.90;;;;;;5056116;28;20181;-46
2023/01/23 07:11:32;;;;;;;29.07;17.87;;;1.10;99.90;;;;;;5038142;28;20228;-47
2023/01/23 07:13:58;;;;;;;28.90;17.33;;;1.20;99.90;;;;;;5056103;28;20209;-47
2023/01/23 07:16:24;;;;;;;30.77;17.73;;;1.10;99.90;;;;;;5056053;28;20184;-41
2023/01/23 07:18:49;;;;;;;31.43;18.23;;;1.10;99.90;;;;;;5056124;28;20207;-43
2023/01/23 07:21:15;;;;;;;29.77;17.67;;;1.10;99.90;;;;;;5055779;28;20194;-44
2023/01/23 07:23:40;;;;;;;31.20;18.57;;;1.10;99.90;;;;;;5055703;28;20247;-43
2023/01/23 07:26:08;;;;;;;32.17;17.00;;;1.10;99.90;;;;;;5038014;28;20178;-43
2023/01/23 07:28:35;;;;;;;30.80;18.60;;;1.20;99.90;;;;;;5055777;28;20179;-43
2023/01/23 07:31:01;;;;;;;28.57;17.10;;;1.20;99.90;;;;;;5037840;28;20942;-42
2023/01/23 07:33:27;;;;;;;30.77;16.73;;;1.20;99.90;;;;;;5055569;28;20207;-43
2023/01/23 07:35:53;;;;;;;29.23;17.53;;;1.20;99.90;;;;;;5055919;28;20592;-42
2023/01/23 07:38:19;;;;;;;29.20;17.27;;;1.20;99.90;;;;;;5038044;28;20569;-43
2023/01/23 07:40:44;;;;;;;31.67;17.43;;;1.30;99.90;;;;;;5055823;28;20172;-43
2023/01/23 07:43:11;;;;;;;29.83;18.43;;;1.30;99.90;;;;;;5055532;28;20255;-43
2023/01/23 07:45:36;;;;;;;30.00;17.00;;;1.30;99.90;;;;;;5055429;28;20184;-43
2023/01/23 07:48:03;;;;;;;30.63;17.60;;;1.30;99.90;;;;;;5055401;28;20266;-43
2023/01/23 07:50:28;;;;;;;30.90;17.53;;;1.30;99.90;;;;;;5055236;28;20211;-43
2023/01/23 07:52:54;;;;;;;29.87;17.53;;;1.30;99.90;;;;;;5055363;28;20281;-42
2023/01/23 07:55:20;;;;;;;28.63;16.00;;;1.30;99.90;;;;;;5055211;28;20180;-43
2023/01/23 07:57:45;;;;;;;27.00;16.83;;;1.40;99.90;;;;;;5055138;28;20651;-44
2023/01/23 08:00:11;;;;;;;27.13;16.17;;;1.40;99.90;;;;;;5058374;28;20188;-45
2023/01/23 08:02:37;;;;;;;29.23;16.70;;;1.40;99.90;;;;;;5062565;28;20264;-43
2023/01/23 08:05:03;;;;;;;29.57;16.13;;;1.40;99.90;;;;;;5061688;28;20690;-42
2023/01/23 08:07:29;;;;;;;31.10;18.47;;;1.40;99.90;;;;;;5060481;28;20183;-43
2023/01/23 08:09:54;;;;;;;30.70;17.20;;;1.40;99.90;;;;;;5057600;28;20275;-45
2023/01/23 08:12:20;;;;;;;29.40;15.83;;;1.40;99.90;;;;;;5055130;28;20204;-44
2023/01/23 08:14:46;;;;;;;28.73;16.97;;;1.40;99.90;;;;;;5055282;28;20182;-42
2023/01/23 08:17:12;;;;;;;30.27;15.37;;;1.50;99.90;;;;;;5055006;28;20211;-46
2023/01/23 08:19:37;;;;;;;27.27;14.97;;;1.50;99.90;;;;;;5054518;28;20261;-47
2023/01/23 08:22:03;;;;;;;26.93;15.77;;;1.50;99.90;;;;;;5054931;28;20214;-48
2023/01/23 08:24:28;;;;;;;28.23;16.70;;;1.50;99.90;;;;;;5054693;28;20183;-48
2023/01/23 08:26:54;;;;;;;29.90;16.87;;;1.50;99.90;;;;;;5054551;28;20183;-47
2023/01/23 08:29:20;;;;;;;29.17;15.77;;;1.50;99.90;;;;;;5054802;28;20182;-47
2023/01/23 08:31:45;;;;;;;27.77;16.07;;;1.60;99.90;;;;;;5054634;28;20198;-47
2023/01/23 08:34:11;;;;;;;28.57;16.53;;;1.60;99.90;;;;;;5054823;28;20175;-46
2023/01/23 08:36:36;;;;;;;25.30;14.10;;;1.60;99.90;;;;;;5054738;28;20198;-45
2023/01/23 08:39:03;;;;;;;27.73;16.73;;;1.60;99.90;;;;;;5054349;28;20295;-46
2023/01/23 08:41:29;;;;;;;29.97;16.07;;;1.70;99.90;;;;;;5054272;28;20186;-45
2023/01/23 08:43:56;;;;;;;25.80;14.90;;;1.70;99.90;;;;;;5054844;28;20523;-45
2023/01/23 08:46:22;;;;;;;28.43;15.53;;;1.70;99.90;;;;;;5054191;28;20175;-46
2023/01/23 08:48:47;;;;;;;25.67;16.27;;;1.70;99.90;;;;;;5054371;28;20545;-42
2023/01/23 08:51:13;;;;;;;26.07;15.70;;;1.70;99.90;;;;;;5054613;28;20198;-42
2023/01/23 08:53:40;;;;;;;28.53;17.20;;;1.70;99.90;;;;;;5054039;28;20697;-44
2023/01/23 08:56:12;;;;;;;27.93;16.10;;;1.80;99.90;;;;;;5054101;28;20578;-43
2023/01/23 08:58:37;;;;;;;26.40;15.30;;;1.80;99.90;;;;;;5054019;28;20199;-42
2023/01/23 09:01:03;;;;;;;24.77;15.07;;;1.80;99.90;;;;;;5053666;28;20183;-41
2023/01/23 09:03:29;;;;;;;29.30;17.37;;;1.80;99.90;;;;;;5054007;28;20656;-42
2023/01/23 09:05:58;;;;;;;26.53;15.67;;;1.80;99.90;;;;;;5053924;28;20659;-45
2023/01/23 09:08:24;;;;;;;25.30;15.47;;;1.80;99.90;;;;;;5053841;28;20183;-43
2023/01/23 09:10:50;;;;;;;26.87;16.53;;;1.80;99.90;;;;;;5036056;28;20421;-43
2023/01/23 09:13:18;;;;;;;26.97;17.00;;;1.80;99.90;;;;;;5054813;28;20229;-43
2023/01/23 09:15:44;;;;;;;23.67;14.67;;;1.90;99.90;;;;;;5053934;28;20181;-41
2023/01/23 09:18:10;;;;;;;25.63;15.87;;;1.90;99.90;;;;;;5053928;28;20253;-44
2023/01/23 09:20:37;;;;;;;25.87;16.17;;;1.90;99.90;;;;;;5053564;28;20679;-45
2023/01/23 09:23:02;;;;;;;23.67;14.80;;;1.90;99.90;;;;;;5035770;28;20261;-42
2023/01/23 09:25:30;;;;;;;28.23;16.70;;;2.00;99.90;;;;;;5053795;28;20180;-41
2023/01/23 09:27:56;;;;;;;27.67;16.70;;;2.00;99.90;;;;;;5035711;28;20585;-43
2023/01/23 09:30:21;;;;;;;26.77;16.03;;;2.00;99.90;;;;;;5053477;28;20179;-42
2023/01/23 09:32:47;;;;;;;27.80;16.37;;;2.00;99.90;;;;;;5053649;28;20201;-43
2023/01/23 09:35:12;;;;;;;27.30;15.17;;;2.10;99.90;;;;;;5053405;28;20656;-41
2023/01/23 09:40:24;;;;;;;25.03;14.77;;;2.10;99.90;;;;;;5053748;28;20669;-41
2023/01/23 09:42:50;;;;;;;25.17;14.80;;;2.10;99.90;;;;;;5053304;28;20728;-43
2023/01/23 09:45:20;;;;;;;27.80;14.87;;;2.20;99.90;;;;;;5035384;28;20183;-43
2023/01/23 09:48:21;;;;;;;25.70;14.30;;;2.20;99.90;;;;;;5053547;28;20543;-43
2023/01/23 09:50:55;;;;;;;27.27;14.47;;;2.20;99.90;;;;;;5038874;28;20170;-45
2023/01/23 09:53:25;;;;;;;28.90;17.13;;;2.30;99.90;;;;;;5035463;28;20251;-40
2023/01/23 09:56:09;;;;;;;30.73;15.37;;;2.30;99.90;;;;;;5053545;28;20172;-41
2023/01/23 09:58:50;;;;;;;27.60;15.03;;;2.40;99.90;;;;;;5053412;28;20245;-41
2023/01/23 10:01:15;;;;;;;24.27;15.20;;;2.40;99.90;;;;;;5053177;28;20167;-41
2023/01/23 10:03:41;;;;;;;27.20;14.60;;;2.40;99.90;;;;;;5053294;28;20200;-39
2023/01/23 10:06:27;;;;;;;27.07;15.20;;;2.40;99.90;;;;;;5053472;28;20191;-41
2023/01/23 10:09:08;;;;;;;25.40;13.53;;;2.40;99.90;;;;;;5053104;28;20215;-41
2023/01/23 10:11:48;;;;;;;26.20;14.07;;;2.50;99.90;;;;;;5053607;28;20163;-40
2023/01/23 10:14:35;;;;;;;26.03;15.43;;;2.50;99.90;;;;;;5056447;28;20636;-42
2023/01/23 10:17:18;;;;;;;24.13;13.20;;;2.50;99.90;;;;;;5022776;28;20249;-44
2023/01/23 10:20:14;;;;;;;26.73;14.97;;;2.60;99.90;;;;;;5056852;28;20841;-41
2023/01/23 10:23:03;;;;;;;27.23;14.00;;;2.60;99.90;;;;;;5056894;28;20199;-41
2023/01/23 10:25:34;;;;;;;26.53;14.67;;;2.70;99.90;;;;;;5057212;28;20202;-42
2023/01/23 10:28:15;;;;;;;28.37;13.60;;;2.70;99.90;;;;;;5057021;28;20190;-42
2023/01/23 10:30:45;;;;;;;24.50;14.80;;;2.70;99.90;;;;;;5057195;28;20202;-42
2023/01/23 10:33:16;;;;;;;27.33;14.63;;;2.70;99.90;;;;;;5038850;28;20215;-43
2023/01/23 10:35:57;;;;;;;28.17;14.93;;;2.70;99.90;;;;;;5038960;28;20175;-39
2023/01/23 10:38:45;;;;;;;22.70;13.67;;;2.80;99.90;;;;;;5038699;28;20226;-41
2023/01/23 10:41:14;;;;;;;25.17;14.73;;;2.80;99.90;;;;;;5056953;28;20160;-42
2023/01/23 10:43:46;;;;;;;25.00;14.83;;;2.80;99.90;;;;;;5038829;28;20260;-41
2023/01/23 10:46:15;;;;;;;27.37;13.33;;;2.80;99.90;;;;;;5056652;28;20222;-42
2023/01/23 10:48:45;;;;;;;28.10;15.27;;;2.80;99.90;;;;;;5056501;28;20213;-41
2023/01/23 10:51:38;;;;;;;28.70;15.13;;;2.80;99.90;;;;;;5056746;28;20230;-40
2023/01/23 10:54:23;;;;;;;26.90;15.30;;;2.90;99.90;;;;;;5056430;28;20544;-41
2023/01/23 10:57:06;;;;;;;24.70;14.73;;;2.80;99.90;;;;;;5056380;28;20171;-42
2023/01/23 10:59:32;;;;;;;29.03;15.87;;;2.80;99.90;;;;;;5056273;28;20200;-43
2023/01/23 11:02:00;;;;;;;24.63;14.37;;;2.90;99.90;;;;;;5056193;28;20196;-42
2023/01/23 11:04:29;;;;;;;26.40;15.03;;;2.90;99.90;;;;;;5056451;28;20654;-42
2023/01/23 11:07:05;;;;;;;29.27;14.60;;;2.90;99.90;;;;;;5038629;28;20184;-39
2023/01/23 11:09:31;;;;;;;30.33;16.07;;;2.90;99.90;;;;;;5056242;28;20255;-42
2023/01/23 11:12:05;;;;;;;26.17;14.53;;;2.90;99.90;;;;;;5056289;28;20287;-40
2023/01/23 11:14:31;;;;;;;27.37;13.90;;;2.90;99.90;;;;;;5056398;28;20567;-42
2023/01/23 11:17:23;;;;;;;28.60;14.00;;;2.90;99.90;;;;;;5056515;28;20194;-40
2023/01/23 11:19:53;;;;;;;28.93;15.27;;;2.90;99.90;;;;;;5052244;28;20642;-41
2023/01/23 11:22:27;;;;;;;24.67;14.17;;;2.90;99.90;;;;;;5056173;28;20605;-41
2023/01/23 11:24:52;;;;;;;27.23;14.50;;;3.00;99.90;;;;;;5054808;28;20176;-41
2023/01/23 11:27:25;;;;;;;24.43;14.27;;;3.00;99.90;;;;;;5037973;28;20294;-41
2023/01/23 11:30:29;;;;;;;32.07;16.57;;;3.00;99.90;;;;;;5037858;28;20177;-41
2023/01/23 11:33:00;;;;;;;29.57;16.13;;;3.00;99.90;;;;;;5055869;28;20203;-41
2023/01/23 11:35:49;;;;;;;27.87;15.50;;;3.00;99.90;;;;;;5055927;28;20203;-40
2023/01/23 11:38:19;;;;;;;34.63;18.83;;;3.00;99.90;;;;;;5043278;28;20674;-39
2023/01/23 11:40:46;;;;;;;33.63;18.27;;;3.10;99.90;;;;;;5055766;28;20184;-39
2023/01/23 11:43:14;;;;;;;41.60;22.93;;;3.10;99.90;;;;;;5037620;28;20733;-40
2023/01/23 11:46:05;;;;;;;35.47;19.17;;;3.10;99.90;;;;;;5037936;28;20629;-38
2023/01/23 11:48:47;;;;;;;42.87;22.70;;;3.10;99.90;;;;;;5055946;28;20628;-42
2023/01/23 11:51:34;;;;;;;33.90;20.37;;;3.10;99.90;;;;;;5055729;28;20184;-45
2023/01/23 11:54:33;;;;;;;31.43;16.67;;;3.10;99.90;;;;;;5037394;28;20188;-43
2023/01/23 11:57:17;;;;;;;36.17;20.37;;;3.20;99.90;;;;;;5055127;28;20648;-45
2023/01/23 11:59:56;;;;;;;30.07;16.03;;;3.20;99.90;;;;;;5021760;28;20290;-45
2023/01/23 12:02:51;;;;;;;36.50;18.73;;;3.20;99.90;;;;;;5055427;28;20242;-46
2023/01/23 12:05:44;;;;;;;33.07;18.17;;;3.20;99.90;;;;;;5037217;28;20246;-43
2023/01/23 12:08:17;;;;;;;35.67;19.37;;;3.30;99.90;;;;;;5037178;28;20179;-44
2023/01/23 12:11:15;;;;;;;27.70;16.23;;;3.30;99.90;;;;;;5055078;28;20226;-46
2023/01/23 12:14:04;;;;;;;35.97;19.30;;;3.30;99.90;;;;;;5056505;28;20207;-45
2023/01/23 12:16:36;;;;;;;34.80;18.20;;;3.30;99.90;;;;;;5055469;28;20300;-45
2023/01/23 12:19:20;;;;;;;36.60;19.97;;;3.30;99.90;;;;;;5055335;28;20192;-46
2023/01/23 12:21:55;;;;;;;36.00;21.07;;;3.30;99.90;;;;;;5054861;28;20579;-43
2023/01/23 12:24:58;;;;;;;29.87;18.50;;;3.30;99.90;;;;;;5037628;28;20203;-45
2023/01/23 12:27:48;;;;;;;51.00;23.67;;;3.30;99.90;;;;;;5055159;28;20582;-46
2023/01/23 12:30:26;;;;;;;26.87;14.80;;;3.30;99.90;;;;;;5055153;28;20164;-44
2023/01/23 12:33:23;;;;;;;25.60;13.60;;;3.30;99.90;;;;;;5055160;28;20737;-43
2023/01/23 12:35:59;;;;;;;22.93;14.37;;;3.30;99.90;;;;;;5054703;28;20164;-43
2023/01/23 12:38:53;;;;;;;25.43;14.23;;;3.30;99.90;;;;;;5054774;28;20192;-44
2023/01/23 12:41:28;;;;;;;26.30;15.30;;;3.30;99.90;;;;;;5055475;28;20212;-44
2023/01/23 12:44:01;;;;;;;23.57;13.30;;;3.30;99.90;;;;;;5054853;28;20195;-43
2023/01/23 12:46:49;;;;;;;23.73;13.73;;;3.30;99.90;;;;;;5054711;28;20572;-44
2023/01/23 12:49:27;;;;;;;23.87;13.53;;;3.40;99.90;;;;;;5054641;28;20234;-45
2023/01/23 12:52:12;;;;;;;23.27;13.23;;;3.40;99.90;;;;;;5054886;28;20199;-39
2023/01/23 12:55:06;;;;;;;21.23;12.70;;;3.40;99.90;;;;;;5054580;28;20161;-41
2023/01/23 12:58:06;;;;;;;20.37;11.30;;;3.40;99.90;;;;;;5019883;28;20192;-39
2023/01/23 13:00:54;;;;;;;21.47;12.73;;;3.40;99.90;;;;;;5051250;28;20196;-46
2023/01/23 13:03:41;;;;;;;23.33;13.13;;;3.40;99.90;;;;;;5036148;28;20298;-44